This is the latest recevied weather packets stored in our database for station/object SP2WPY-13. If no packets are shown the sender has not sent any weather packets the latest 10 day(s).
| Time | Temp. | Humidity | Pressure | Rain* | Wind** | Luminosity | Snow |
|---|---|---|---|---|---|---|---|
| 1777962100 | 15° C | 46% | 1013.8 hPa | - | - | - | - |
| 1777961781 | 15.56° C | 46% | 1013.8 hPa | - | - | - | - |
| 1777961461 | 16.11° C | 46% | 1013.8 hPa | - | - | - | - |
| 1777961187 | 16.11° C | 47% | 1013.8 hPa | - | - | - | - |
| 1777960868 | 16.11° C | 47% | 1013.8 hPa | - | - | - | - |
| 1777960593 | 16.67° C | 44% | 1013.9 hPa | - | - | - | - |
| 1777960274 | 16.11° C | 49% | 1013.9 hPa | - | - | - | - |
| 1777959999 | 16.11° C | 56% | 1013.8 hPa | - | - | - | - |
| 1777959680 | 15.56° C | 58% | 1013.8 hPa | - | - | - | - |
| 1777959360 | 15° C | 64% | 1013.8 hPa | - | - | - | - |
| 1777959086 | 14.44° C | 64% | 1013.9 hPa | - | - | - | - |
| 1777958767 | 13.89° C | 66% | 1013.9 hPa | - | - | - | - |
| 1777958493 | 13.89° C | 65% | 1013.8 hPa | - | - | - | - |
| 1777958173 | 13.89° C | 69% | 1013.7 hPa | - | - | - | - |
| 1777957900 | 13.89° C | 72% | 1013.8 hPa | - | - | - | - |
| 1777957579 | 13.89° C | 73% | 1013.8 hPa | - | - | - | - |
| 1777957306 | 12.78° C | 79% | 1014 hPa | - | - | - | - |
| 1777956987 | 12.22° C | 80% | 1013.9 hPa | - | - | - | - |
| 1777956666 | 12.22° C | 80% | 1013.9 hPa | - | - | - | - |
| 1777956392 | 11.67° C | 82% | 1013.9 hPa | - | - | - | - |
| 1777956073 | 11.67° C | 82% | 1014 hPa | - | - | - | - |
| 1777955799 | 11.11° C | 84% | 1013.9 hPa | - | - | - | - |
| 1777955479 | 11.11° C | 84% | 1013.9 hPa | - | - | - | - |
| 1777955205 | 11.11° C | 87% | 1014 hPa | - | - | - | - |
| 1777954885 | 11.11° C | 86% | 1014 hPa | - | - | - | - |
* Rain since midnight (hover to see other rain measurements)
** Current wind speed in m/s (hover to see current wind gust speed)